sensor_id;sensor_type;location;lat;lon;timestamp;pressure;altitude;pressure_sealevel;temperature;humidity
63739;BME280;68816;45.558;10.070;2023-07-02T00:01:10;99212.66;;;26.42;60.04
63739;BME280;68816;45.558;10.070;2023-07-02T00:03:37;99215.72;;;26.49;60.13
63739;BME280;68816;45.558;10.070;2023-07-02T00:06:03;99215.47;;;26.27;60.74
63739;BME280;68816;45.558;10.070;2023-07-02T00:08:28;99212.25;;;26.28;60.54
63739;BME280;68816;45.558;10.070;2023-07-02T00:10:54;99214.84;;;26.21;61.14
63739;BME280;68816;45.558;10.070;2023-07-02T00:13:19;99207.69;;;26.11;61.21
63739;BME280;68816;45.558;10.070;2023-07-02T00:15:45;99209.81;;;26.14;61.22
63739;BME280;68816;45.558;10.070;2023-07-02T00:18:11;99202.81;;;26.24;61.32
63739;BME280;68816;45.558;10.070;2023-07-02T00:20:37;99207.06;;;26.30;61.07
63739;BME280;68816;45.558;10.070;2023-07-02T00:23:05;99200.47;;;26.26;61.16
63739;BME280;68816;45.558;10.070;2023-07-02T00:25:31;99205.41;;;26.29;61.27
63739;BME280;68816;45.558;10.070;2023-07-02T00:27:57;99200.03;;;26.40;60.64
63739;BME280;68816;45.558;10.070;2023-07-02T00:30:22;99203.28;;;26.26;61.31
63739;BME280;68816;45.558;10.070;2023-07-02T00:32:48;99197.97;;;26.25;61.53
63739;BME280;68816;45.558;10.070;2023-07-02T00:35:13;99202.84;;;26.12;61.50
63739;BME280;68816;45.558;10.070;2023-07-02T00:37:38;99210.78;;;26.06;61.79
63739;BME280;68816;45.558;10.070;2023-07-02T00:40:05;99206.81;;;25.83;62.76
63739;BME280;68816;45.558;10.070;2023-07-02T00:42:31;99219.56;;;25.89;62.29
63739;BME280;68816;45.558;10.070;2023-07-02T00:44:56;99206.94;;;25.74;63.01
63739;BME280;68816;45.558;10.070;2023-07-02T00:47:29;99213.09;;;25.76;62.89
63739;BME280;68816;45.558;10.070;2023-07-02T00:49:55;99209.94;;;25.66;63.06
63739;BME280;68816;45.558;10.070;2023-07-02T00:52:21;99208.75;;;25.55;63.40
63739;BME280;68816;45.558;10.070;2023-07-02T00:54:46;99209.00;;;25.62;63.11
63739;BME280;68816;45.558;10.070;2023-07-02T00:57:12;99205.53;;;25.68;62.50
63739;BME280;68816;45.558;10.070;2023-07-02T00:59:38;99214.03;;;25.68;62.65
63739;BME280;68816;45.558;10.070;2023-07-02T01:02:04;99206.88;;;25.59;62.68
63739;BME280;68816;45.558;10.070;2023-07-02T01:04:30;99209.81;;;25.38;63.39
63739;BME280;68816;45.558;10.070;2023-07-02T01:06:56;99214.75;;;25.41;63.15
63739;BME280;68816;45.558;10.070;2023-07-02T01:09:25;99204.63;;;25.40;62.98
63739;BME280;68816;45.558;10.070;2023-07-02T01:11:59;99209.81;;;25.38;63.30
63739;BME280;68816;45.558;10.070;2023-07-02T01:17:01;99202.50;;;25.25;63.59
63739;BME280;68816;45.558;10.070;2023-07-02T01:19:49;99200.75;;;25.32;63.28
63739;BME280;68816;45.558;10.070;2023-07-02T01:22:20;99205.34;;;25.25;63.76
63739;BME280;68816;45.558;10.070;2023-07-02T01:24:46;99195.91;;;25.09;63.79
63739;BME280;68816;45.558;10.070;2023-07-02T01:27:15;99199.66;;;25.01;64.19
63739;BME280;68816;45.558;10.070;2023-07-02T01:29:41;99196.75;;;25.09;64.10
63739;BME280;68816;45.558;10.070;2023-07-02T01:32:08;99195.66;;;25.02;64.40
63739;BME280;68816;45.558;10.070;2023-07-02T01:34:34;99200.75;;;25.08;64.05
63739;BME280;68816;45.558;10.070;2023-07-02T01:37:00;99206.50;;;25.12;63.80
63739;BME280;68816;45.558;10.070;2023-07-02T01:39:26;99203.34;;;25.13;63.81
63739;BME280;68816;45.558;10.070;2023-07-02T01:41:53;99184.34;;;25.14;63.81
63739;BME280;68816;45.558;10.070;2023-07-02T01:44:20;99206.16;;;25.25;64.41
63739;BME280;68816;45.558;10.070;2023-07-02T01:46:46;99213.25;;;25.31;63.71
63739;BME280;68816;45.558;10.070;2023-07-02T01:49:16;99208.66;;;25.39;63.61
63739;BME280;68816;45.558;10.070;2023-07-02T01:51:49;99204.75;;;25.44;63.75
63739;BME280;68816;45.558;10.070;2023-07-02T01:54:15;99219.00;;;25.47;63.43
63739;BME280;68816;45.558;10.070;2023-07-02T01:56:41;99214.53;;;25.22;64.31
63739;BME280;68816;45.558;10.070;2023-07-02T01:59:06;99221.38;;;25.33;64.10
63739;BME280;68816;45.558;10.070;2023-07-02T02:01:31;99219.00;;;25.35;64.36
63739;BME280;68816;45.558;10.070;2023-07-02T02:03:58;99218.78;;;25.28;64.54
63739;BME280;68816;45.558;10.070;2023-07-02T02:06:24;99207.34;;;25.36;64.25
63739;BME280;68816;45.558;10.070;2023-07-02T02:08:49;99205.09;;;25.18;64.72
63739;BME280;68816;45.558;10.070;2023-07-02T02:11:15;99217.13;;;25.15;65.00
63739;BME280;68816;45.558;10.070;2023-07-02T02:13:40;99214.31;;;25.15;65.31
63739;BME280;68816;45.558;10.070;2023-07-02T02:16:06;99206.75;;;25.07;65.09
63739;BME280;68816;45.558;10.070;2023-07-02T02:18:31;99203.06;;;24.94;65.40
63739;BME280;68816;45.558;10.070;2023-07-02T02:20:56;99222.81;;;25.15;65.08
63739;BME280;68816;45.558;10.070;2023-07-02T02:23:22;99222.09;;;25.18;64.38
63739;BME280;68816;45.558;10.070;2023-07-02T02:25:48;99223.38;;;25.08;65.03
63739;BME280;68816;45.558;10.070;2023-07-02T02:28:13;99225.16;;;25.13;64.94
63739;BME280;68816;45.558;10.070;2023-07-02T02:30:39;99221.38;;;25.09;65.11
63739;BME280;68816;45.558;10.070;2023-07-02T02:33:04;99224.66;;;24.99;65.54
63739;BME280;68816;45.558;10.070;2023-07-02T02:35:30;99224.56;;;25.07;65.44
63739;BME280;68816;45.558;10.070;2023-07-02T02:37:55;99226.78;;;25.02;65.54
63739;BME280;68816;45.558;10.070;2023-07-02T02:40:20;99225.84;;;24.98;65.48
63739;BME280;68816;45.558;10.070;2023-07-02T02:42:46;99219.13;;;25.02;65.17
63739;BME280;68816;45.558;10.070;2023-07-02T02:45:11;99218.88;;;24.95;65.11
63739;BME280;68816;45.558;10.070;2023-07-02T02:47:37;99209.50;;;24.82;65.88
63739;BME280;68816;45.558;10.070;2023-07-02T02:50:03;99219.66;;;24.83;65.35
63739;BME280;68816;45.558;10.070;2023-07-02T02:52:28;99222.69;;;24.66;65.61
63739;BME280;68816;45.558;10.070;2023-07-02T02:54:54;99226.22;;;24.75;65.11
63739;BME280;68816;45.558;10.070;2023-07-02T02:57:19;99222.22;;;24.76;65.07
63739;BME280;68816;45.558;10.070;2023-07-02T02:59:45;99218.00;;;24.82;64.73
63739;BME280;68816;45.558;10.070;2023-07-02T03:02:11;99227.88;;;24.76;65.13
63739;BME280;68816;45.558;10.070;2023-07-02T03:04:36;99227.03;;;24.64;66.15
63739;BME280;68816;45.558;10.070;2023-07-02T03:07:05;99231.66;;;24.68;65.78
63739;BME280;68816;45.558;10.070;2023-07-02T03:09:32;99224.00;;;24.69;65.80
63739;BME280;68816;45.558;10.070;2023-07-02T03:11:57;99225.78;;;24.73;65.49
63739;BME280;68816;45.558;10.070;2023-07-02T03:14:22;99226.00;;;24.68;65.59
63739;BME280;68816;45.558;10.070;2023-07-02T03:16:48;99225.88;;;24.77;65.32
63739;BME280;68816;45.558;10.070;2023-07-02T03:19:13;99231.19;;;24.78;64.52
63739;BME280;68816;45.558;10.070;2023-07-02T03:21:43;99231.53;;;24.77;65.14
63739;BME280;68816;45.558;10.070;2023-07-02T03:24:08;99232.34;;;24.65;65.26
63739;BME280;68816;45.558;10.070;2023-07-02T03:26:37;99236.53;;;24.47;65.73
63739;BME280;68816;45.558;10.070;2023-07-02T03:29:02;99234.31;;;24.52;65.54
63739;BME280;68816;45.558;10.070;2023-07-02T03:31:28;99231.63;;;24.56;65.85
63739;BME280;68816;45.558;10.070;2023-07-02T03:33:53;99237.09;;;24.40;66.03
63739;BME280;68816;45.558;10.070;2023-07-02T03:36:19;99230.41;;;24.45;66.02
63739;BME280;68816;45.558;10.070;2023-07-02T03:38:44;99235.22;;;24.44;65.80
63739;BME280;68816;45.558;10.070;2023-07-02T03:41:10;99236.88;;;24.45;66.05
63739;BME280;68816;45.558;10.070;2023-07-02T03:43:35;99239.78;;;24.37;66.09
63739;BME280;68816;45.558;10.070;2023-07-02T03:46:01;99238.56;;;24.26;66.97
63739;BME280;68816;45.558;10.070;2023-07-02T03:48:26;99239.19;;;24.31;66.44
63739;BME280;68816;45.558;10.070;2023-07-02T03:50:51;99234.22;;;24.28;66.52
63739;BME280;68816;45.558;10.070;2023-07-02T03:53:17;99242.56;;;24.25;66.48
63739;BME280;68816;45.558;10.070;2023-07-02T03:55:42;99246.34;;;24.29;66.69
63739;BME280;68816;45.558;10.070;2023-07-02T03:58:08;99240.97;;;24.36;66.14
63739;BME280;68816;45.558;10.070;2023-07-02T04:00:34;99242.91;;;24.23;66.68
63739;BME280;68816;45.558;10.070;2023-07-02T04:02:59;99246.34;;;24.29;66.57
63739;BME280;68816;45.558;10.070;2023-07-02T04:05:25;99245.09;;;24.38;66.46
63739;BME280;68816;45.558;10.070;2023-07-02T04:07:50;99251.69;;;24.42;66.28
63739;BME280;68816;45.558;10.070;2023-07-02T04:10:15;99247.72;;;24.43;66.19
63739;BME280;68816;45.558;10.070;2023-07-02T04:12:41;99245.50;;;24.49;66.18
63739;BME280;68816;45.558;10.070;2023-07-02T04:15:07;99249.38;;;24.44;66.29
63739;BME280;68816;45.558;10.070;2023-07-02T04:17:33;99261.97;;;24.47;66.22
63739;BME280;68816;45.558;10.070;2023-07-02T04:20:00;99264.09;;;24.50;66.32
63739;BME280;68816;45.558;10.070;2023-07-02T04:22:26;99266.22;;;24.53;66.19
63739;BME280;68816;45.558;10.070;2023-07-02T04:24:51;99267.63;;;24.47;66.44
63739;BME280;68816;45.558;10.070;2023-07-02T04:27:17;99270.97;;;24.61;66.40
63739;BME280;68816;45.558;10.070;2023-07-02T04:29:44;99273.53;;;24.54;66.22
63739;BME280;68816;45.558;10.070;2023-07-02T04:32:09;99268.50;;;24.60;65.54
63739;BME280;68816;45.558;10.070;2023-07-02T04:34:35;99265.59;;;24.68;65.56
63739;BME280;68816;45.558;10.070;2023-07-02T04:37:03;99268.19;;;24.73;65.80
63739;BME280;68816;45.558;10.070;2023-07-02T04:39:29;99273.47;;;24.63;66.50
63739;BME280;68816;45.558;10.070;2023-07-02T04:41:54;99278.34;;;24.74;66.33
63739;BME280;68816;45.558;10.070;2023-07-02T04:44:20;99278.34;;;24.74;65.90
63739;BME280;68816;45.558;10.070;2023-07-02T04:46:58;99280.59;;;24.81;65.98
63739;BME280;68816;45.558;10.070;2023-07-02T04:49:24;99290.47;;;24.75;66.12
63739;BME280;68816;45.558;10.070;2023-07-02T04:51:50;99285.34;;;24.89;65.98
63739;BME280;68816;45.558;10.070;2023-07-02T04:54:16;99289.94;;;24.93;65.36
63739;BME280;68816;45.558;10.070;2023-07-02T04:56:41;99293.03;;;25.01;65.45
63739;BME280;68816;45.558;10.070;2023-07-02T04:59:07;99287.16;;;25.06;65.13
63739;BME280;68816;45.558;10.070;2023-07-02T05:01:32;99281.59;;;24.97;65.57
63739;BME280;68816;45.558;10.070;2023-07-02T05:03:57;99293.03;;;25.01;65.27
63739;BME280;68816;45.558;10.070;2023-07-02T05:06:23;99296.94;;;25.08;65.03
63739;BME280;68816;45.558;10.070;2023-07-02T05:08:48;99295.03;;;25.00;65.23
63739;BME280;68816;45.558;10.070;2023-07-02T05:11:14;99287.25;;;24.97;65.38
63739;BME280;68816;45.558;10.070;2023-07-02T05:13:39;99291.16;;;25.05;64.96
63739;BME280;68816;45.558;10.070;2023-07-02T05:16:05;99291.28;;;25.08;65.51
63739;BME280;68816;45.558;10.070;2023-07-02T05:18:30;99288.81;;;25.19;65.04
63739;BME280;68816;45.558;10.070;2023-07-02T05:20:56;99289.41;;;25.24;64.57
63739;BME280;68816;45.558;10.070;2023-07-02T05:23:21;99288.59;;;25.36;64.24
63739;BME280;68816;45.558;10.070;2023-07-02T05:25:47;99293.19;;;25.41;63.48
63739;BME280;68816;45.558;10.070;2023-07-02T05:28:12;99290.00;;;25.30;64.63
63739;BME280;68816;45.558;10.070;2023-07-02T05:30:38;99288.63;;;25.48;63.61
63739;BME280;68816;45.558;10.070;2023-07-02T05:33:03;99291.44;;;25.48;63.52
63739;BME280;68816;45.558;10.070;2023-07-02T05:35:28;99290.72;;;25.51;62.77
63739;BME280;68816;45.558;10.070;2023-07-02T05:37:54;99292.88;;;25.54;62.82
63739;BME280;68816;45.558;10.070;2023-07-02T05:40:19;99295.69;;;25.54;62.36
63739;BME280;68816;45.558;10.070;2023-07-02T05:42:45;99290.66;;;25.60;62.69
63739;BME280;68816;45.558;10.070;2023-07-02T05:45:10;99292.53;;;25.68;62.31
63739;BME280;68816;45.558;10.070;2023-07-02T05:47:36;99297.50;;;25.71;62.29
63739;BME280;68816;45.558;10.070;2023-07-02T05:50:01;99282.25;;;25.75;62.06
63739;BME280;68816;45.558;10.070;2023-07-02T05:52:27;99296.91;;;25.77;62.03
63739;BME280;68816;45.558;10.070;2023-07-02T05:54:52;99300.41;;;25.87;62.79
63739;BME280;68816;45.558;10.070;2023-07-02T05:57:18;99305.16;;;25.83;62.62
63739;BME280;68816;45.558;10.070;2023-07-02T05:59:43;99305.88;;;25.80;61.01
63739;BME280;68816;45.558;10.070;2023-07-02T06:02:08;99307.50;;;25.93;61.13
63739;BME280;68816;45.558;10.070;2023-07-02T06:04:34;99304.06;;;25.87;60.42
63739;BME280;68816;45.558;10.070;2023-07-02T06:06:59;99295.69;;;26.03;59.66
63739;BME280;68816;45.558;10.070;2023-07-02T06:09:25;99308.28;;;26.17;59.38
63739;BME280;68816;45.558;10.070;2023-07-02T06:11:50;99308.75;;;26.20;58.68
63739;BME280;68816;45.558;10.070;2023-07-02T06:14:16;99314.19;;;26.37;58.26
63739;BME280;68816;45.558;10.070;2023-07-02T06:16:41;99310.34;;;26.45;58.28
63739;BME280;68816;45.558;10.070;2023-07-02T06:19:07;99310.72;;;26.43;58.20
63739;BME280;68816;45.558;10.070;2023-07-02T06:21:32;99315.19;;;26.44;57.90
63739;BME280;68816;45.558;10.070;2023-07-02T06:23:58;99316.03;;;26.45;57.87
63739;BME280;68816;45.558;10.070;2023-07-02T06:26:24;99326.19;;;26.46;58.31
63739;BME280;68816;45.558;10.070;2023-07-02T06:28:49;99325.84;;;26.47;58.14
63739;BME280;68816;45.558;10.070;2023-07-02T06:31:15;99323.75;;;26.32;58.52
63739;BME280;68816;45.558;10.070;2023-07-02T06:33:40;99336.97;;;26.16;59.25
63739;BME280;68816;45.558;10.070;2023-07-02T06:36:07;99335.94;;;26.08;59.59
63739;BME280;68816;45.558;10.070;2023-07-02T06:38:33;99336.31;;;25.83;60.53
63739;BME280;68816;45.558;10.070;2023-07-02T06:40:58;99344.91;;;26.10;60.20
63739;BME280;68816;45.558;10.070;2023-07-02T06:43:23;99348.56;;;26.35;59.88
63739;BME280;68816;45.558;10.070;2023-07-02T06:45:49;99342.53;;;26.37;60.54
63739;BME280;68816;45.558;10.070;2023-07-02T06:48:15;99335.66;;;26.50;60.13
63739;BME280;68816;45.558;10.070;2023-07-02T06:50:46;99333.59;;;26.50;59.53
63739;BME280;68816;45.558;10.070;2023-07-02T06:53:11;99343.06;;;26.54;59.46
63739;BME280;68816;45.558;10.070;2023-07-02T06:55:37;99343.28;;;26.62;59.97
63739;BME280;68816;45.558;10.070;2023-07-02T06:58:04;99342.66;;;26.68;59.72
63739;BME280;68816;45.558;10.070;2023-07-02T07:00:33;99349.56;;;26.55;59.88
63739;BME280;68816;45.558;10.070;2023-07-02T07:03:05;99342.03;;;26.47;60.79
63739;BME280;68816;45.558;10.070;2023-07-02T07:05:31;99346.06;;;26.74;60.83
63739;BME280;68816;45.558;10.070;2023-07-02T07:07:57;99347.88;;;26.66;60.43
63739;BME280;68816;45.558;10.070;2023-07-02T07:10:23;99340.97;;;26.39;61.38
63739;BME280;68816;45.558;10.070;2023-07-02T07:12:49;99334.84;;;26.37;61.73
63739;BME280;68816;45.558;10.070;2023-07-02T07:15:14;99345.13;;;26.30;61.93
63739;BME280;68816;45.558;10.070;2023-07-02T07:17:40;99341.38;;;26.13;62.74
63739;BME280;68816;45.558;10.070;2023-07-02T07:20:05;99343.22;;;26.34;62.04
63739;BME280;68816;45.558;10.070;2023-07-02T07:22:31;99342.63;;;26.40;61.95
63739;BME280;68816;45.558;10.070;2023-07-02T07:24:56;99350.72;;;26.66;61.40
63739;BME280;68816;45.558;10.070;2023-07-02T07:27:22;99344.66;;;26.68;59.99
63739;BME280;68816;45.558;10.070;2023-07-02T07:29:47;99343.06;;;26.82;59.38
63739;BME280;68816;45.558;10.070;2023-07-02T07:32:13;99346.00;;;26.86;59.10
63739;BME280;68816;45.558;10.070;2023-07-02T07:34:38;99347.91;;;26.94;60.36
63739;BME280;68816;45.558;10.070;2023-07-02T07:37:04;99351.50;;;26.79;60.63
63739;BME280;68816;45.558;10.070;2023-07-02T07:39:30;99343.44;;;26.81;60.45
63739;BME280;68816;45.558;10.070;2023-07-02T07:41:55;99349.00;;;26.89;59.81
63739;BME280;68816;45.558;10.070;2023-07-02T07:44:21;99349.56;;;26.83;59.54
63739;BME280;68816;45.558;10.070;2023-07-02T07:46:46;99347.63;;;26.99;59.17
63739;BME280;68816;45.558;10.070;2023-07-02T07:49:13;99360.00;;;26.79;60.00
63739;BME280;68816;45.558;10.070;2023-07-02T07:51:39;99353.84;;;26.77;59.87
63739;BME280;68816;45.558;10.070;2023-07-02T07:54:04;99358.06;;;26.95;60.21
63739;BME280;68816;45.558;10.070;2023-07-02T07:56:30;99358.78;;;26.92;60.32
63739;BME280;68816;45.558;10.070;2023-07-02T07:58:55;99358.72;;;27.04;59.97
63739;BME280;68816;45.558;10.070;2023-07-02T08:01:21;99363.38;;;26.96;60.30
63739;BME280;68816;45.558;10.070;2023-07-02T08:03:46;99359.47;;;27.17;59.76
63739;BME280;68816;45.558;10.070;2023-07-02T08:06:12;99366.13;;;27.36;59.20
63739;BME280;68816;45.558;10.070;2023-07-02T08:08:37;99365.22;;;27.48;59.49
63739;BME280;68816;45.558;10.070;2023-07-02T08:11:03;99373.13;;;27.55;59.15
63739;BME280;68816;45.558;10.070;2023-07-02T08:13:28;99371.72;;;27.49;57.90
63739;BME280;68816;45.558;10.070;2023-07-02T08:15:54;99366.94;;;27.37;57.60
63739;BME280;68816;45.558;10.070;2023-07-02T08:18:19;99364.81;;;27.50;56.93
63739;BME280;68816;45.558;10.070;2023-07-02T08:20:44;99375.06;;;27.82;56.88
63739;BME280;68816;45.558;10.070;2023-07-02T08:23:10;99363.91;;;28.08;55.48
63739;BME280;68816;45.558;10.070;2023-07-02T08:25:37;99370.94;;;28.46;55.11
63739;BME280;68816;45.558;10.070;2023-07-02T08:28:02;99362.56;;;28.72;54.18
63739;BME280;68816;45.558;10.070;2023-07-02T08:30:28;99363.38;;;28.73;54.68
63739;BME280;68816;45.558;10.070;2023-07-02T08:32:53;99364.25;;;28.73;53.24
63739;BME280;68816;45.558;10.070;2023-07-02T08:35:20;99364.72;;;28.94;52.76
63739;BME280;68816;45.558;10.070;2023-07-02T08:37:45;99372.53;;;29.20;52.21
63739;BME280;68816;45.558;10.070;2023-07-02T08:40:19;99363.28;;;29.46;51.41
63739;BME280;68816;45.558;10.070;2023-07-02T08:42:45;99367.66;;;29.40;51.38
63739;BME280;68816;45.558;10.070;2023-07-02T08:45:14;99378.28;;;29.24;51.65
63739;BME280;68816;45.558;10.070;2023-07-02T08:47:40;99373.50;;;29.28;50.92
63739;BME280;68816;45.558;10.070;2023-07-02T08:50:06;99378.91;;;29.14;51.41
63739;BME280;68816;45.558;10.070;2023-07-02T08:52:31;99373.66;;;28.96;51.32
63739;BME280;68816;45.558;10.070;2023-07-02T08:54:57;99382.47;;;28.72;50.95
63739;BME280;68816;45.558;10.070;2023-07-02T08:57:22;99374.28;;;28.86;50.43
63739;BME280;68816;45.558;10.070;2023-07-02T08:59:48;99376.19;;;29.21;50.29
63739;BME280;68816;45.558;10.070;2023-07-02T09:02:16;99381.00;;;28.78;51.42
63739;BME280;68816;45.558;10.070;2023-07-02T09:04:42;99382.22;;;29.16;51.59
63739;BME280;68816;45.558;10.070;2023-07-02T09:07:10;99376.38;;;29.09;51.03
63739;BME280;68816;45.558;10.070;2023-07-02T09:09:47;99378.00;;;29.29;50.03
63739;BME280;68816;45.558;10.070;2023-07-02T09:12:29;99372.91;;;29.84;48.57
63739;BME280;68816;45.558;10.070;2023-07-02T09:15:01;99372.81;;;29.99;48.43
63739;BME280;68816;45.558;10.070;2023-07-02T09:17:29;99374.38;;;29.97;47.17
63739;BME280;68816;45.558;10.070;2023-07-02T09:19:57;99376.59;;;29.61;48.49
63739;BME280;68816;45.558;10.070;2023-07-02T09:22:23;99375.34;;;29.82;47.66
63739;BME280;68816;45.558;10.070;2023-07-02T09:24:55;99366.78;;;30.04;47.98
63739;BME280;68816;45.558;10.070;2023-07-02T09:27:39;99372.41;;;30.01;47.95
63739;BME280;68816;45.558;10.070;2023-07-02T09:30:12;99373.09;;;29.71;48.94
63739;BME280;68816;45.558;10.070;2023-07-02T09:32:39;99375.00;;;29.22;50.80
63739;BME280;68816;45.558;10.070;2023-07-02T09:35:05;99365.06;;;29.54;51.16
63739;BME280;68816;45.558;10.070;2023-07-02T09:37:31;99373.78;;;29.42;50.63
63739;BME280;68816;45.558;10.070;2023-07-02T09:39:57;99365.88;;;29.77;49.65
63739;BME280;68816;45.558;10.070;2023-07-02T09:42:25;99380.34;;;29.23;50.69
63739;BME280;68816;45.558;10.070;2023-07-02T09:44:58;99374.72;;;29.08;51.27
63739;BME280;68816;45.558;10.070;2023-07-02T09:47:25;99368.72;;;29.55;50.62
63739;BME280;68816;45.558;10.070;2023-07-02T09:49:58;99352.63;;;29.89;48.82
63739;BME280;68816;45.558;10.070;2023-07-02T09:52:25;99356.19;;;30.05;48.83
63739;BME280;68816;45.558;10.070;2023-07-02T09:54:51;99357.78;;;29.79;48.81
63739;BME280;68816;45.558;10.070;2023-07-02T09:57:17;99359.84;;;29.83;49.33
63739;BME280;68816;45.558;10.070;2023-07-02T09:59:42;99352.41;;;29.74;48.30
63739;BME280;68816;45.558;10.070;2023-07-02T10:02:09;99357.00;;;29.60;48.44
63739;BME280;68816;45.558;10.070;2023-07-02T10:04:45;99363.47;;;30.02;47.64
63739;BME280;68816;45.558;10.070;2023-07-02T10:07:13;99354.88;;;30.25;47.67
63739;BME280;68816;45.558;10.070;2023-07-02T10:09:50;99357.94;;;30.13;47.54
63739;BME280;68816;45.558;10.070;2023-07-02T10:12:25;99358.38;;;30.15;47.95
63739;BME280;68816;45.558;10.070;2023-07-02T10:14:53;99358.38;;;30.15;48.06
63739;BME280;68816;45.558;10.070;2023-07-02T10:17:31;99322.50;;;29.65;47.95
63739;BME280;68816;45.558;10.070;2023-07-02T10:19:59;99368.84;;;29.20;49.23
63739;BME280;68816;45.558;10.070;2023-07-02T10:22:26;99348.97;;;28.81;50.00
63739;BME280;68816;45.558;10.070;2023-07-02T10:24:58;99363.47;;;29.15;48.94
63739;BME280;68816;45.558;10.070;2023-07-02T10:27:37;99354.56;;;29.58;49.14
63739;BME280;68816;45.558;10.070;2023-07-02T10:30:07;99356.63;;;29.61;47.80
63739;BME280;68816;45.558;10.070;2023-07-02T10:32:34;99356.59;;;29.58;47.30
63739;BME280;68816;45.558;10.070;2023-07-02T10:35:26;99355.06;;;29.41;48.14
63739;BME280;68816;45.558;10.070;2023-07-02T10:37:58;99358.88;;;29.29;48.09
63739;BME280;68816;45.558;10.070;2023-07-02T10:40:23;99350.69;;;29.70;47.51
63739;BME280;68816;45.558;10.070;2023-07-02T10:42:50;99352.78;;;29.96;46.57
63739;BME280;68816;45.558;10.070;2023-07-02T10:45:16;99345.00;;;29.93;46.29
63739;BME280;68816;45.558;10.070;2023-07-02T10:47:42;99347.34;;;30.40;46.80
63739;BME280;68816;45.558;10.070;2023-07-02T10:50:15;99342.78;;;30.95;44.18
63739;BME280;68816;45.558;10.070;2023-07-02T10:52:41;99348.34;;;30.81;43.67
63739;BME280;68816;45.558;10.070;2023-07-02T10:55:06;99344.13;;;30.71;43.75
63739;BME280;68816;45.558;10.070;2023-07-02T10:57:32;99345.56;;;30.58;43.63
63739;BME280;68816;45.558;10.070;2023-07-02T11:00:05;99336.97;;;30.84;43.83
63739;BME280;68816;45.558;10.070;2023-07-02T11:02:35;99329.56;;;30.80;43.60
63739;BME280;68816;45.558;10.070;2023-07-02T11:05:01;99324.88;;;31.31;43.40
63739;BME280;68816;45.558;10.070;2023-07-02T11:07:27;99338.38;;;30.68;44.03
63739;BME280;68816;45.558;10.070;2023-07-02T11:09:53;99334.38;;;30.76;45.82
63739;BME280;68816;45.558;10.070;2023-07-02T11:12:27;99327.94;;;30.82;44.94
63739;BME280;68816;45.558;10.070;2023-07-02T11:14:52;99344.00;;;30.60;44.99
63739;BME280;68816;45.558;10.070;2023-07-02T11:17:24;99336.97;;;31.18;44.33
63739;BME280;68816;45.558;10.070;2023-07-02T11:19:51;99334.00;;;31.07;44.84
63739;BME280;68816;45.558;10.070;2023-07-02T11:22:16;99330.00;;;31.15;43.01
63739;BME280;68816;45.558;10.070;2023-07-02T11:24:42;99330.25;;;31.40;42.60
63739;BME280;68816;45.558;10.070;2023-07-02T11:27:07;99321.47;;;30.85;43.90
63739;BME280;68816;45.558;10.070;2023-07-02T11:29:36;99331.78;;;31.27;43.63
63739;BME280;68816;45.558;10.070;2023-07-02T11:32:06;99330.88;;;31.19;42.65
63739;BME280;68816;45.558;10.070;2023-07-02T11:34:32;99332.94;;;30.89;42.82
63739;BME280;68816;45.558;10.070;2023-07-02T11:36:57;99328.56;;;31.35;42.70
63739;BME280;68816;45.558;10.070;2023-07-02T11:39:23;99333.22;;;31.10;42.65
63739;BME280;68816;45.558;10.070;2023-07-02T11:41:49;99322.91;;;31.39;41.68
63739;BME280;68816;45.558;10.070;2023-07-02T11:44:16;99326.66;;;31.91;40.75
63739;BME280;68816;45.558;10.070;2023-07-02T11:46:42;99320.41;;;32.29;39.62
63739;BME280;68816;45.558;10.070;2023-07-02T11:49:07;99320.41;;;32.29;40.37
63739;BME280;68816;45.558;10.070;2023-07-02T11:51:38;99326.69;;;31.98;40.13
63739;BME280;68816;45.558;10.070;2023-07-02T11:54:04;99314.03;;;31.51;40.23
63739;BME280;68816;45.558;10.070;2023-07-02T11:56:30;99320.38;;;31.74;41.41
63739;BME280;68816;45.558;10.070;2023-07-02T11:58:56;99325.41;;;31.88;41.72
63739;BME280;68816;45.558;10.070;2023-07-02T12:01:21;99315.41;;;31.64;43.06
63739;BME280;68816;45.558;10.070;2023-07-02T12:03:47;99320.19;;;32.01;40.58
63739;BME280;68816;45.558;10.070;2023-07-02T12:06:12;99323.53;;;32.10;40.61
63739;BME280;68816;45.558;10.070;2023-07-02T12:08:38;99322.22;;;31.97;40.55
63739;BME280;68816;45.558;10.070;2023-07-02T12:11:03;99313.63;;;31.97;41.25
63739;BME280;68816;45.558;10.070;2023-07-02T12:13:29;99313.19;;;31.91;40.73
63739;BME280;68816;45.558;10.070;2023-07-02T12:15:54;99322.56;;;31.48;40.70
63739;BME280;68816;45.558;10.070;2023-07-02T12:18:20;99320.97;;;31.98;40.02
63739;BME280;68816;45.558;10.070;2023-07-02T12:20:45;99317.22;;;31.87;39.87
63739;BME280;68816;45.558;10.070;2023-07-02T12:23:11;99328.56;;;32.24;39.86
63739;BME280;68816;45.558;10.070;2023-07-02T12:25:37;99321.34;;;32.44;39.36
63739;BME280;68816;45.558;10.070;2023-07-02T12:28:03;99306.53;;;32.35;38.32
63739;BME280;68816;45.558;10.070;2023-07-02T12:30:30;99324.56;;;32.39;38.40
63739;BME280;68816;45.558;10.070;2023-07-02T12:32:55;99314.69;;;32.26;39.29
63739;BME280;68816;45.558;10.070;2023-07-02T12:35:21;99314.75;;;32.40;38.91
63739;BME280;68816;45.558;10.070;2023-07-02T12:37:48;99318.44;;;32.40;38.93
63739;BME280;68816;45.558;10.070;2023-07-02T12:40:14;99320.03;;;31.79;39.07
63739;BME280;68816;45.558;10.070;2023-07-02T12:42:43;99328.34;;;31.95;38.94
63739;BME280;68816;45.558;10.070;2023-07-02T12:45:10;99321.13;;;32.15;38.63
63739;BME280;68816;45.558;10.070;2023-07-02T12:47:37;99313.19;;;32.53;38.24
63739;BME280;68816;45.558;10.070;2023-07-02T12:50:03;99318.38;;;32.30;38.12